Whitehall, West Virginia
Current Conditions -  °F | °C
As of 8:13 AM on Thursday 27 Nov 2014 (Local Time) from KCKB Reporting Station
Haze Haze  
Wind Chill: 33°   Ceiling: 1600
Heat Index: 33°   Visibility: 5mi
Dew Point: 32°   Wind: 0mph
Humidity: 96%   Direction: NA
Pressure: 30.04"   Gusts: NA
Location:  39.485°N, 80.1426°W
Report Text: KCKB 271313Z 00000KT 5SM BR OVC016 01/00 A3004 RMK AO2 T00060000
Loading
Personal Weather Stations






























Interactive Weather Map New forecast layout! Learn more

10-Day Weather Forecast

Advertisements
Track Severe Weather on mobile